»·PEaware :: UAL1399 KCPR-KDEN

UAL1399 :: KCPR-KDEN

FLIGHT INFORMATION

Flight Status: Arrived
Operator:
United Airlines
More flights by this operator :: More flights under this callsign
Pilot: David C. (16084)
Aircraft: AIRBUS A320
(A320)
More flights by this aircraft type
Origin: KCPR Natrona Co Intl
United States
Destination: KDEN Denver Intl
United States
More flights between these airports :: More routes between these airports
Route: CASPER3 DDY WOOKY TSHNR2
File this flight plan on PilotEdge
Remarks:
Altitude:
(Current/Filed)
29,000ft
Speed:
(Current/Filed)
479kts
Departed: 07-May-18 09:46 AM
Arrived: 07-May-18 10:24 AM
Distance/Time
Traveled:
200nm/0:38
Distance/Time
To Go:
Arrived

Flight Plot

Page will automatically refresh every two minutes.

Flight plan parsing failed; only flown route is shown


Map Options




Map Legend


Flown Route
Filed Route
Departure Airport
Arrival Airport
Navaid (VOR, NDB)
Fix

Horizontal Profiles

Position Reports

Time Latitude Longitude Heading Altitude Ground
Speed
07-May-18 09:18 42.897522 -106.465268 152 5356ft 0kts
07-May-18 09:19 42.897522 -106.465268 152 5356ft 0kts
07-May-18 09:20 42.897522 -106.465268 152 5356ft 0kts
07-May-18 09:21 42.897522 -106.465268 152 5356ft 0kts
07-May-18 09:22 42.897522 -106.465268 152 5356ft 0kts
07-May-18 09:23 42.897522 -106.465268 152 5356ft 0kts
07-May-18 09:24 42.897522 -106.465268 152 5356ft 0kts
07-May-18 09:25 42.897522 -106.465268 152 5356ft 0kts
07-May-18 09:26 42.897522 -106.465268 152 5356ft 0kts
07-May-18 09:27 42.897522 -106.465268 152 5356ft 0kts
07-May-18 09:28 42.897522 -106.465268 152 5356ft 0kts
07-May-18 09:29 42.897522 -106.465268 152 5356ft 0kts
07-May-18 09:30 42.897522 -106.465268 152 5356ft 0kts
07-May-18 09:31 42.897522 -106.465268 152 5356ft 0kts
07-May-18 09:32 42.897632 -106.465950 62 5356ft 1kts
07-May-18 09:33 42.897587 -106.466048 56 5356ft 0kts
07-May-18 09:34 42.897587 -106.466048 56 5356ft 0kts
07-May-18 09:35 42.897587 -106.466048 56 5356ft 0kts
07-May-18 09:36 42.897587 -106.466048 56 5356ft 0kts
07-May-18 09:37 42.897587 -106.466048 56 5356ft 0kts
07-May-18 09:38 42.897587 -106.466048 56 5356ft 0kts
07-May-18 09:39 42.897587 -106.466048 56 5356ft 0kts
07-May-18 09:40 42.897587 -106.466048 56 5356ft 0kts
07-May-18 09:41 42.900480 -106.463081 43 5356ft 28kts
07-May-18 09:42 42.907540 -106.453882 43 5356ft 34kts
07-May-18 09:43 42.912487 -106.447986 331 5356ft 0kts
07-May-18 09:44 42.912487 -106.447986 331 5356ft 0kts
07-May-18 09:45 42.912855 -106.448418 313 5356ft 12kts
07-May-18 09:46 42.900292 -106.466083 224 5364ft 167kts
07-May-18 09:47 42.859422 -106.511672 219 7554ft 213kts
07-May-18 09:48 42.812223 -106.562769 220 10344ft 225kts
07-May-18 09:49 42.755324 -106.593241 165 12970ft 253kts
07-May-18 09:50 42.688531 -106.554473 162 14794ft 285kts
07-May-18 09:51 42.607061 -106.509797 162 16591ft 335kts
07-May-18 09:52 42.519317 -106.461413 163 19021ft 350kts
07-May-18 09:53 42.427531 -106.410892 163 21219ft 364kts
07-May-18 09:54 42.332461 -106.358859 164 23204ft 377kts
07-May-18 09:55 42.233610 -106.304955 164 25010ft 389kts
07-May-18 09:56 42.132591 -106.250045 164 26663ft 401kts
07-May-18 09:57 42.027905 -106.193332 164 28189ft 412kts
07-May-18 09:58 41.920246 -106.135241 164 29334ft 429kts
07-May-18 09:59 41.804713 -106.073220 164 29332ft 471kts
07-May-18 10:00 41.679431 -106.006082 163 29325ft 502kts
07-May-18 10:01 41.549129 -105.936472 163 29326ft 506kts
07-May-18 10:02 41.418869 -105.867261 163 29325ft 505kts
07-May-18 10:03 41.288715 -105.798428 163 29321ft 505kts
07-May-18 10:04 41.158320 -105.729766 163 29323ft 505kts
07-May-18 10:05 41.028330 -105.661584 162 27713ft 504kts
07-May-18 10:06 40.900056 -105.594579 162 25041ft 491kts
07-May-18 10:07 40.779362 -105.531813 161 22408ft 480kts
07-May-18 10:08 40.657691 -105.468773 161 20009ft 457kts
07-May-18 10:09 40.565856 -105.370521 127 19182ft 416kts
07-May-18 10:10 40.502773 -105.255136 128 18456ft 370kts
07-May-18 10:11 40.467224 -105.145416 112 17361ft 352kts
07-May-18 10:12 40.433458 -105.026901 111 15755ft 343kts
07-May-18 10:13 40.401456 -104.915381 110 15020ft 308kts
07-May-18 10:14 40.374143 -104.815614 108 14191ft 286kts
07-May-18 10:15 40.336826 -104.728691 144 12996ft 275kts
07-May-18 10:16 40.274421 -104.682256 181 11816ft 264kts
07-May-18 10:17 40.202656 -104.683188 181 10137ft 257kts
07-May-18 10:18 40.132607 -104.684014 181 9577ft 256kts
07-May-18 10:19 40.068489 -104.685117 181 8737ft 231kts
07-May-18 10:20 40.007631 -104.685489 182 7581ft 215kts
07-May-18 10:21 39.956504 -104.686083 182 6611ft 176kts
07-May-18 10:22 39.914148 -104.686596 182 5808ft 151kts
07-May-18 10:23 39.880456 -104.686984 174 5440ft 51kts
07-May-18 10:24 39.876324 -104.685582 150 5440ft 3kts
07-May-18 10:25 39.874319 -104.683718 178 5440ft 12kts
07-May-18 10:26 39.869028 -104.683811 179 5440ft 28kts
07-May-18 10:27 39.860302 -104.683927 180 5440ft 31kts
07-May-18 10:28 39.856881 -104.680412 88 5440ft 17kts
07-May-18 10:29 39.858104 -104.679619 16 5440ft 0kts

Navigation Log

Ident Type
Flight plan parsing failed, navigation log unavailable